Springfield, OH (45503)

6:44 AM EST on December 29, 2014 (GMT -0500)
Snyder Park | Change Station
CLOSE
Current Station
Personal Weather Station
Location: Springfield, OH
Elevation: 919 ft
Nearby Weather Stations

Elev 919 ft 39.93 °N, 83.85 °W | Updated 0 second ago

Clear
Clear
23.7 °F
Feels Like 24 °F
N
0.0
Wind Variable Wind from North
Gusts 0.0 mph

Today
High -- | Low -- °F
--% Chance of Precip.
Yesterday
High -- | Low -- °F
Precip. -- in
7:56 AM 5:18 PM
First Quarter, 58% visible
Pressure 30.26 in
Visibility 5.0 miles
Clouds Clear
Windchill 24 °F
Dew Point 22 °F
Humidity 93%
Rainfall 0.00 in
Snow Depth Not available.
UV 0 out of 12
Pollen .10 out of 12
Air Quality Not available.
Flu Activity Not available.
METAR KSGH 291056Z AUTO 15004KT 5SM BR CLR M05/M06 A3022 RMK AO2 T10501055 SLP246

More Conditions Fewer Conditions

Pressure 30.26 in
Visibility 5.0 miles
Clouds Clear
Windchill 24 °F
Dew Point 22 °F
Humidity 93%
Rainfall 0.00 in
Snow Depth Not available.
UV 0 out of 12
Pollen .10 out of 12
Air Quality Not available.
Flu Activity Not available.
METAR KSGH 291056Z AUTO 15004KT 5SM BR CLR M05/M06 A3022 RMK AO2 T10501055 SLP246

More Conditions Fewer Conditions

10-Day Weather Forecast

Almanac

Astronomy

Dec. 29, 2014 Rise Set
Actual Time
Civil Twilight
Nautical Twilight
Astronomical Twilight
Moon
Length of Visible Light
Length of Day
Tomorrow will be .
, % of the Moon is Illuminated

Today's Extremes

State Highs State Lows

Community

WunderPhotos

Upload Photos

1,781,571 photos uploaded!

WunderBlogs® & News

Nearby

Air Quality

  Air Quality AQ Index Pollutant
Not available.

Snow Depth

Station Depth Elevation

Earthquake Activity

City Distance Mag. Time & Date
Minimum magnitude displayed is 2.5.

Coastal Water Temperatures

Place Temperature

Nearby Weather Stations